createdAt,value
2023-01-08T02:28:27.459Z,8.92
2023-01-08T02:30:55.670Z,8.94
2023-01-08T02:33:26.908Z,8.95
2023-01-08T02:36:15.580Z,8.83
2023-01-08T02:39:23.718Z,8.76
2023-01-08T02:42:06.910Z,8.59
2023-01-08T02:44:47.947Z,8.78
2023-01-08T02:47:41.308Z,8.73
2023-01-08T02:50:18.976Z,8.72
2023-01-08T02:53:00.385Z,8.66
2023-01-08T02:55:29.227Z,8.72
2023-01-08T02:57:57.667Z,8.71
2023-01-08T03:00:24.865Z,8.69
2023-01-08T03:03:05.724Z,8.70
2023-01-08T03:05:33.654Z,8.83
2023-01-08T03:08:00.903Z,8.88
2023-01-08T03:10:30.363Z,8.95
2023-01-08T03:13:09.150Z,8.96
2023-01-08T03:15:46.145Z,8.94
2023-01-08T03:18:20.974Z,8.90
2023-01-08T03:20:50.759Z,8.81
2023-01-08T03:23:20.742Z,8.73
2023-01-08T03:25:48.420Z,8.77
2023-01-08T03:28:33.310Z,8.80
2023-01-08T03:31:02.546Z,8.83
2023-01-08T03:33:32.341Z,8.85
2023-01-08T03:36:03.584Z,8.80
2023-01-08T03:38:44.868Z,8.76
2023-01-08T03:41:18.347Z,8.78
2023-01-08T03:43:45.193Z,8.77
2023-01-08T03:46:19.977Z,8.66
2023-01-08T03:48:49.684Z,8.65
2023-01-08T03:51:16.215Z,8.76
2023-01-08T03:53:42.740Z,8.87
2023-01-08T03:56:09.273Z,8.92
2023-01-08T03:58:35.723Z,8.89
2023-01-08T04:01:02.257Z,8.86
2023-01-08T04:03:28.747Z,8.90
2023-01-08T04:05:55.209Z,8.83
2023-01-08T04:08:21.685Z,8.84
2023-01-08T04:10:48.163Z,8.87
2023-01-08T04:13:14.615Z,8.94
2023-01-08T04:15:41.211Z,9.00
2023-01-08T04:18:07.745Z,9.05
2023-01-08T04:20:34.204Z,9.02
2023-01-08T04:23:00.676Z,8.87
2023-01-08T04:25:27.144Z,8.84
2023-01-08T04:27:53.592Z,8.85
2023-01-08T04:30:20.079Z,8.81
2023-01-08T04:32:46.550Z,8.82
2023-01-08T04:35:13.059Z,8.84
2023-01-08T04:37:39.582Z,8.85
2023-01-08T04:40:06.865Z,8.87
2023-01-08T04:42:33.363Z,8.85
2023-01-08T04:44:59.852Z,8.86
2023-01-08T04:47:26.300Z,8.90
2023-01-08T04:49:52.737Z,8.81
2023-01-08T04:52:19.207Z,8.84
2023-01-08T04:54:45.708Z,8.76
2023-01-08T04:57:12.174Z,8.77
2023-01-08T04:59:38.609Z,8.62
2023-01-08T05:02:05.201Z,8.61
2023-01-08T05:04:31.706Z,8.70
2023-01-08T05:06:58.187Z,8.80
2023-01-08T05:09:24.705Z,8.83
2023-01-08T05:11:51.176Z,8.85
2023-01-08T05:14:17.699Z,8.90
2023-01-08T05:16:44.214Z,8.82
2023-01-08T05:19:10.932Z,8.85
2023-01-08T05:21:37.476Z,8.89
2023-01-08T05:24:04.224Z,8.84
2023-01-08T05:26:30.778Z,8.89
2023-01-08T05:28:58.166Z,8.87
2023-01-08T05:31:24.965Z,8.85
2023-01-08T05:33:51.619Z,8.89
2023-01-08T05:36:18.261Z,8.88
2023-01-08T05:38:44.771Z,8.95
2023-01-08T05:41:11.483Z,8.90
2023-01-08T05:43:37.958Z,8.83
2023-01-08T05:46:06.144Z,8.81
2023-01-08T05:48:35.607Z,8.83
2023-01-08T05:51:03.783Z,8.88
2023-01-08T05:53:34.238Z,8.73
2023-01-08T05:56:09.394Z,8.63
2023-01-08T05:58:36.325Z,8.59
2023-01-08T06:01:10.886Z,8.56
2023-01-08T06:03:38.818Z,8.61
2023-01-08T06:06:08.074Z,8.66
2023-01-08T06:08:35.072Z,8.70
2023-01-08T06:11:05.620Z,8.74
2023-01-08T06:13:33.735Z,8.75
2023-01-08T06:16:02.005Z,8.66
2023-01-08T06:18:30.123Z,8.63
2023-01-08T06:20:56.759Z,8.63
2023-01-08T06:23:23.251Z,8.60
2023-01-08T06:25:54.909Z,8.61
2023-01-08T06:28:22.210Z,8.52
2023-01-08T06:30:49.041Z,8.52
2023-01-08T06:33:15.981Z,8.50
2023-01-08T06:35:42.532Z,8.51
2023-01-08T06:38:09.054Z,8.51
2023-01-08T06:40:35.601Z,8.42
2023-01-08T06:43:03.675Z,8.47
2023-01-08T06:45:30.343Z,8.50
2023-01-08T06:48:02.144Z,8.50
2023-01-08T06:50:29.667Z,8.56
2023-01-08T06:52:57.181Z,8.55
2023-01-08T06:55:25.283Z,8.53
2023-01-08T06:57:56.827Z,8.46
2023-01-08T07:00:26.072Z,8.43
2023-01-08T07:02:54.383Z,8.47
2023-01-08T07:05:21.825Z,8.42
2023-01-08T07:07:48.789Z,8.44
2023-01-08T07:10:15.416Z,8.39
2023-01-08T07:12:41.892Z,8.41
2023-01-08T07:15:09.163Z,8.44
2023-01-08T07:17:35.763Z,8.49
2023-01-08T07:20:02.229Z,8.49
2023-01-08T07:22:29.110Z,8.49
2023-01-08T07:24:55.726Z,8.45
2023-01-08T07:27:22.276Z,8.50
2023-01-08T07:29:48.754Z,8.36
2023-01-08T07:32:15.212Z,8.34
2023-01-08T07:34:41.637Z,8.37
2023-01-08T07:37:08.122Z,8.36
2023-01-08T07:39:34.646Z,8.28
2023-01-08T07:42:01.234Z,8.28
2023-01-08T07:44:27.731Z,8.26
2023-01-08T07:46:55.057Z,8.33
2023-01-08T07:49:21.537Z,8.36
2023-01-08T07:51:50.827Z,8.35
2023-01-08T07:54:17.518Z,8.39
2023-01-08T07:56:44.113Z,8.48
2023-01-08T07:59:10.649Z,8.50
2023-01-08T08:01:37.264Z,8.49
2023-01-08T08:04:03.919Z,8.48
2023-01-08T08:06:30.380Z,8.49
2023-01-08T08:08:59.820Z,8.58
2023-01-08T08:11:26.392Z,8.52
2023-01-08T08:13:54.664Z,8.44
2023-01-08T08:16:22.576Z,8.31
2023-01-08T08:18:49.118Z,8.34
2023-01-08T08:21:15.579Z,8.39
2023-01-08T08:23:42.043Z,8.44
2023-01-08T08:26:08.528Z,8.43
2023-01-08T08:28:35.026Z,8.52
2023-01-08T08:31:01.546Z,8.51
2023-01-08T08:33:28.043Z,8.64
2023-01-08T08:35:54.510Z,8.66
2023-01-08T08:38:23.236Z,8.59
2023-01-08T08:40:50.745Z,8.57
2023-01-08T08:43:17.320Z,8.60
2023-01-08T08:45:44.122Z,8.62
2023-01-08T08:48:11.292Z,8.63
2023-01-08T08:50:39.846Z,8.69
2023-01-08T08:53:06.712Z,8.67
2023-01-08T08:55:34.016Z,8.66
2023-01-08T08:58:10.896Z,8.54
2023-01-08T09:00:39.445Z,8.53
2023-01-08T09:03:06.116Z,8.54
2023-01-08T09:05:36.868Z,8.45
2023-01-08T09:08:03.742Z,8.46
2023-01-08T09:10:30.298Z,8.44
2023-01-08T09:12:56.804Z,8.42
2023-01-08T09:15:23.443Z,8.49
2023-01-08T09:17:55.389Z,8.45
2023-01-08T09:20:23.325Z,8.46
2023-01-08T09:22:50.184Z,8.47
2023-01-08T09:25:17.248Z,8.49
2023-01-08T09:27:43.923Z,8.40
2023-01-08T09:30:11.614Z,8.36
2023-01-08T09:32:38.354Z,8.32
2023-01-08T09:35:06.292Z,8.36
2023-01-08T09:37:32.779Z,8.34
2023-01-08T09:40:02.433Z,8.35
2023-01-08T09:42:31.601Z,8.40
2023-01-08T09:45:03.626Z,8.47
2023-01-08T09:47:41.067Z,8.40
2023-01-08T09:50:13.984Z,8.33
2023-01-08T09:52:43.560Z,8.29
2023-01-08T09:55:15.351Z,8.24
2023-01-08T09:57:44.413Z,8.20
2023-01-08T10:00:21.105Z,8.16
2023-01-08T10:02:48.292Z,7.82
2023-01-08T10:05:17.671Z,7.69
2023-01-08T10:07:45.991Z,7.93
2023-01-08T10:10:32.461Z,7.94
2023-01-08T10:12:59.770Z,8.01
2023-01-08T10:15:26.497Z,8.00
2023-01-08T10:18:14.195Z,7.94
2023-01-08T10:20:40.757Z,7.99
2023-01-08T10:23:17.464Z,8.15
2023-01-08T10:25:59.094Z,8.31
2023-01-08T10:28:33.223Z,8.51
2023-01-08T10:31:08.157Z,8.61
2023-01-08T10:33:47.175Z,8.65
2023-01-08T10:36:24.360Z,8.71
2023-01-08T10:39:03.243Z,8.71
2023-01-08T10:41:31.351Z,8.81
2023-01-08T10:44:06.259Z,8.87
2023-01-08T10:46:42.396Z,8.93
2023-01-08T10:49:29.601Z,8.94
2023-01-08T10:51:56.489Z,8.89
2023-01-08T10:54:38.892Z,8.81
2023-01-08T10:57:28.358Z,8.87
2023-01-08T10:59:56.643Z,8.95
2023-01-08T11:02:38.332Z,8.94
2023-01-08T11:05:10.838Z,8.98
2023-01-08T11:07:40.124Z,9.02
2023-01-08T11:10:20.900Z,9.04
2023-01-08T11:12:47.489Z,9.00
2023-01-08T11:15:19.623Z,9.00
2023-01-08T11:17:46.546Z,9.05
2023-01-08T11:20:20.899Z,9.07
2023-01-08T11:22:47.424Z,9.11
2023-01-08T11:25:25.289Z,9.09
2023-01-08T11:27:53.756Z,9.13
2023-01-08T11:30:26.000Z,9.12
2023-01-08T11:33:18.502Z,9.20
2023-01-08T11:36:02.019Z,9.19
2023-01-08T11:38:28.522Z,9.22
2023-01-08T11:40:59.151Z,9.22
2023-01-08T11:44:02.743Z,9.26
2023-01-08T11:46:59.787Z,9.38
2023-01-08T11:49:45.875Z,9.41
2023-01-08T11:53:23.919Z,9.32
2023-01-08T11:55:56.367Z,9.37
2023-01-08T11:58:59.105Z,9.38
2023-01-08T12:01:48.121Z,9.35
2023-01-08T12:05:04.574Z,9.37
2023-01-08T12:08:06.687Z,9.41
2023-01-08T12:10:45.414Z,9.46
2023-01-08T12:13:41.805Z,9.46
2023-01-08T12:16:32.789Z,9.48
2023-01-08T12:19:31.072Z,9.57
2023-01-08T12:22:38.210Z,9.56
2023-01-08T12:25:16.827Z,9.51
2023-01-08T12:28:13.926Z,9.59
2023-01-08T12:31:36.961Z,9.49
2023-01-08T12:34:12.628Z,9.55
2023-01-08T12:36:54.109Z,9.59
2023-01-08T12:39:45.890Z,9.58
2023-01-08T12:42:19.267Z,9.62
2023-01-08T12:44:47.652Z,9.60
2023-01-08T12:47:22.075Z,9.55
2023-01-08T12:50:24.140Z,9.58
2023-01-08T12:52:50.536Z,9.48
2023-01-08T12:55:55.523Z,9.63
2023-01-08T12:58:34.006Z,9.57
2023-01-08T13:01:26.141Z,9.63
2023-01-08T13:03:55.069Z,9.62
2023-01-08T13:06:22.744Z,9.60
2023-01-08T13:08:53.828Z,9.67
2023-01-08T13:11:38.204Z,9.71
2023-01-08T13:14:11.976Z,9.71
2023-01-08T13:16:41.890Z,9.73
2023-01-08T13:19:26.161Z,9.61
2023-01-08T13:22:01.080Z,9.57
2023-01-08T13:24:40.913Z,9.58
2023-01-08T13:27:11.443Z,9.55
2023-01-08T13:29:43.284Z,9.57
2023-01-08T13:32:45.620Z,9.47
2023-01-08T13:35:15.173Z,9.50
2023-01-08T13:37:49.685Z,9.46
2023-01-08T13:40:45.774Z,9.39
2023-01-08T13:43:21.429Z,9.27
2023-01-08T13:46:00.179Z,9.27
2023-01-08T13:48:32.413Z,9.34
2023-01-08T13:50:59.464Z,9.35
2023-01-08T13:53:26.399Z,9.35
2023-01-08T13:56:01.242Z,9.32
2023-01-08T13:58:33.976Z,9.31
2023-01-08T14:01:03.086Z,9.29
2023-01-08T14:03:44.109Z,9.26
2023-01-08T14:06:13.273Z,9.23
2023-01-08T14:09:04.576Z,9.21
2023-01-08T14:11:40.600Z,9.20
2023-01-08T14:14:13.345Z,9.08
2023-01-08T14:16:41.412Z,9.17
2023-01-08T14:19:08.480Z,9.09
2023-01-08T14:21:35.213Z,9.07
2023-01-08T14:24:01.825Z,9.02
2023-01-08T14:26:37.210Z,8.99
2023-01-08T14:29:14.940Z,9.10
2023-01-08T14:31:52.124Z,8.99
2023-01-08T14:34:21.960Z,9.05
2023-01-08T14:36:52.798Z,9.08
2023-01-08T14:39:39.616Z,9.02
2023-01-08T14:42:37.399Z,9.09
2023-01-08T14:45:28.092Z,9.02
2023-01-08T14:48:01.491Z,9.08
2023-01-08T14:50:40.515Z,8.94
2023-01-08T14:53:24.951Z,8.72
2023-01-08T14:55:55.237Z,8.76
2023-01-08T14:58:30.885Z,8.84
2023-01-08T15:01:02.234Z,8.72
2023-01-08T15:03:32.239Z,8.80
2023-01-08T15:05:59.287Z,8.75
2023-01-08T15:08:34.245Z,8.70
2023-01-08T15:11:15.336Z,8.71
2023-01-08T15:13:42.093Z,8.74
2023-01-08T15:16:40.212Z,8.60
2023-01-08T15:19:18.415Z,8.62
2023-01-08T15:21:54.882Z,8.62
2023-01-08T15:24:25.545Z,8.43
2023-01-08T15:26:53.436Z,8.49
2023-01-08T15:29:32.949Z,8.44
2023-01-08T15:32:23.495Z,8.36
2023-01-08T15:34:50.011Z,8.44
2023-01-08T15:37:16.592Z,8.47
2023-01-08T15:39:43.290Z,8.48
2023-01-08T15:42:47.215Z,8.41
2023-01-08T15:45:32.412Z,8.16
2023-01-08T15:47:59.655Z,8.01
2023-01-08T15:50:28.437Z,8.03
2023-01-08T15:53:00.935Z,7.97
2023-01-08T15:55:27.477Z,7.78
2023-01-08T15:57:55.919Z,7.79
2023-01-08T16:00:22.884Z,7.78
2023-01-08T16:02:52.847Z,7.67
2023-01-08T16:05:23.160Z,7.67
2023-01-08T16:07:49.695Z,7.60
2023-01-08T16:10:18.245Z,7.67
2023-01-08T16:12:45.156Z,7.71
2023-01-08T16:15:14.400Z,7.76
2023-01-08T16:17:41.678Z,7.69
2023-01-08T16:20:11.430Z,7.70
2023-01-08T16:22:38.280Z,7.68
2023-01-08T16:25:05.723Z,7.65
2023-01-08T16:27:33.294Z,7.64
2023-01-08T16:30:00.050Z,7.54
2023-01-08T16:32:26.539Z,7.43
2023-01-08T16:34:54.815Z,7.33
2023-01-08T16:37:22.428Z,7.27
2023-01-08T16:39:49.251Z,7.29
2023-01-08T16:42:15.759Z,7.15
2023-01-08T16:44:42.436Z,7.14
2023-01-08T16:47:08.976Z,7.19
2023-01-08T16:49:35.925Z,7.22
2023-01-08T16:52:02.592Z,7.18
2023-01-08T16:54:29.270Z,7.22
2023-01-08T16:56:55.751Z,7.25
2023-01-08T16:59:23.899Z,7.23
2023-01-08T17:01:52.236Z,7.08
2023-01-08T17:04:19.349Z,7.00
2023-01-08T17:06:46.798Z,6.88
2023-01-08T17:09:14.523Z,6.84
2023-01-08T17:11:41.135Z,6.60
2023-01-08T17:14:08.781Z,6.60
2023-01-08T17:16:35.358Z,6.49
2023-01-08T17:19:01.900Z,6.50
2023-01-08T17:21:28.401Z,6.41
2023-01-08T17:23:54.910Z,6.37
2023-01-08T17:26:21.620Z,6.26
2023-01-08T17:28:48.253Z,6.12
2023-01-08T17:31:18.423Z,6.06
2023-01-08T17:33:50.084Z,6.07
2023-01-08T17:36:23.758Z,5.99
2023-01-08T17:38:52.972Z,6.01
2023-01-08T17:41:40.518Z,6.05
2023-01-08T17:44:09.453Z,5.94
2023-01-08T17:46:39.616Z,5.80
2023-01-08T17:49:06.173Z,5.68
2023-01-08T17:51:33.403Z,5.69
2023-01-08T17:54:01.049Z,5.66
2023-01-08T17:56:27.981Z,5.65
2023-01-08T17:58:54.610Z,5.69
2023-01-08T18:01:21.417Z,5.57
2023-01-08T18:03:48.154Z,5.52
2023-01-08T18:06:14.838Z,5.59
2023-01-08T18:08:41.568Z,5.67
2023-01-08T18:11:10.222Z,5.72
2023-01-08T18:13:37.915Z,5.70
2023-01-08T18:16:10.794Z,5.78
2023-01-08T18:18:39.119Z,5.86
2023-01-08T18:21:06.953Z,6.00
2023-01-08T18:23:33.861Z,6.15
2023-01-08T18:26:12.513Z,6.13
2023-01-08T18:28:39.557Z,6.19
2023-01-08T18:31:09.048Z,6.25
2023-01-08T18:33:36.801Z,6.33
2023-01-08T18:36:09.253Z,6.43
2023-01-08T18:38:42.464Z,6.40
2023-01-08T18:41:12.474Z,6.40
2023-01-08T18:43:38.996Z,6.36
2023-01-08T18:46:07.977Z,6.39
2023-01-08T18:48:35.610Z,6.39
2023-01-08T18:51:05.551Z,6.33
2023-01-08T18:53:33.514Z,6.28
2023-01-08T18:56:01.708Z,6.26
2023-01-08T18:58:29.457Z,6.35
2023-01-08T19:01:01.749Z,6.20
2023-01-08T19:03:28.262Z,6.21
2023-01-08T19:05:54.725Z,6.16
2023-01-08T19:08:21.233Z,6.19
2023-01-08T19:10:47.788Z,6.30
2023-01-08T19:13:14.309Z,6.33
2023-01-08T19:15:40.749Z,6.25
2023-01-08T19:18:08.951Z,6.24
2023-01-08T19:20:35.900Z,6.23
2023-01-08T19:23:02.408Z,6.27
2023-01-08T19:25:28.966Z,6.28
2023-01-08T19:27:55.419Z,6.35
2023-01-08T19:30:21.926Z,6.46
2023-01-08T19:32:48.869Z,6.48
2023-01-08T19:35:15.416Z,6.48
2023-01-08T19:37:42.958Z,6.55
2023-01-08T19:40:10.539Z,6.58
2023-01-08T19:42:55.978Z,6.61
2023-01-08T19:45:22.502Z,6.66
2023-01-08T19:47:49.211Z,6.67
2023-01-08T19:50:16.033Z,6.75
2023-01-08T19:52:42.610Z,6.85
2023-01-08T19:55:09.582Z,6.94
2023-01-08T19:57:36.211Z,6.95
2023-01-08T20:00:04.596Z,7.02
2023-01-08T20:02:32.232Z,7.01
2023-01-08T20:04:58.697Z,7.05
2023-01-08T20:07:25.256Z,7.03
2023-01-08T20:09:51.743Z,7.04
2023-01-08T20:12:18.264Z,7.06
2023-01-08T20:14:45.058Z,7.04
2023-01-08T20:17:11.848Z,7.03
2023-01-08T20:19:38.344Z,7.04
2023-01-08T20:22:04.938Z,7.13
2023-01-08T20:24:31.560Z,7.14
2023-01-08T20:26:58.054Z,7.21
2023-01-08T20:29:26.157Z,7.20
2023-01-08T20:31:59.320Z,7.19
2023-01-08T20:34:27.063Z,7.25
2023-01-08T20:36:53.634Z,7.33
2023-01-08T20:39:20.214Z,7.32
2023-01-08T20:41:55.723Z,7.24
2023-01-08T20:44:30.420Z,7.32
2023-01-08T20:46:57.000Z,7.31
2023-01-08T20:49:25.176Z,7.28
2023-01-08T20:51:58.622Z,7.24
2023-01-08T20:54:26.632Z,7.35
2023-01-08T20:56:55.955Z,7.35
2023-01-08T20:59:24.037Z,7.35
2023-01-08T21:01:52.369Z,7.32
2023-01-08T21:04:19.210Z,7.36
2023-01-08T21:06:45.838Z,7.44
2023-01-08T21:09:14.022Z,7.42
2023-01-08T21:11:41.132Z,7.47
2023-01-08T21:14:08.868Z,7.45
2023-01-08T21:16:39.403Z,7.52
2023-01-08T21:19:06.857Z,7.54
2023-01-08T21:21:38.974Z,7.55
2023-01-08T21:24:08.874Z,7.56
2023-01-08T21:26:36.818Z,7.50
2023-01-08T21:29:05.877Z,7.53
2023-01-08T21:31:33.065Z,7.54
2023-01-08T21:34:01.589Z,7.38
2023-01-08T21:36:31.373Z,7.37
2023-01-08T21:39:00.773Z,7.43
2023-01-08T21:41:47.805Z,7.50
2023-01-08T21:44:37.619Z,7.53
2023-01-08T21:47:07.529Z,7.52
2023-01-08T21:49:35.960Z,7.58
2023-01-08T21:52:21.235Z,7.67
2023-01-08T21:54:47.758Z,7.65
2023-01-08T21:57:14.346Z,7.66
2023-01-08T21:59:40.876Z,7.67
2023-01-08T22:02:07.574Z,7.76
2023-01-08T22:04:34.458Z,7.65
2023-01-08T22:07:00.979Z,7.58
2023-01-08T22:09:27.463Z,7.69
2023-01-08T22:11:56.105Z,7.71
2023-01-08T22:14:23.061Z,7.73
2023-01-08T22:16:49.557Z,7.76
2023-01-08T22:19:16.077Z,7.80
2023-01-08T22:21:42.577Z,7.78
2023-01-08T22:24:09.208Z,7.65
2023-01-08T22:26:35.989Z,7.64
2023-01-08T22:29:05.789Z,7.66
2023-01-08T22:31:33.764Z,7.63
2023-01-08T22:34:00.694Z,7.66
2023-01-08T22:36:27.305Z,7.60
2023-01-08T22:38:53.779Z,7.62
2023-01-08T22:41:24.210Z,7.65
2023-01-08T22:43:56.623Z,7.60
2023-01-08T22:46:24.386Z,7.63
2023-01-08T22:48:51.265Z,7.57
2023-01-08T22:51:19.435Z,7.59
2023-01-08T22:53:45.922Z,7.54
2023-01-08T22:56:12.967Z,7.55
2023-01-08T22:58:41.782Z,7.60
2023-01-08T23:01:12.383Z,7.68
2023-01-08T23:03:44.135Z,7.70
2023-01-08T23:06:16.617Z,7.59
2023-01-08T23:08:44.676Z,7.60
2023-01-08T23:11:14.993Z,7.50
2023-01-08T23:13:42.176Z,7.54
2023-01-08T23:16:12.680Z,7.54
2023-01-08T23:18:40.149Z,7.48
2023-01-08T23:21:17.043Z,7.52
2023-01-08T23:23:44.596Z,7.63
2023-01-08T23:26:24.725Z,7.67
2023-01-08T23:28:53.065Z,7.65
2023-01-08T23:31:25.205Z,7.63
2023-01-08T23:33:52.588Z,7.68
2023-01-08T23:36:21.017Z,7.70
2023-01-08T23:38:54.649Z,7.74
2023-01-08T23:41:30.737Z,7.66
2023-01-08T23:44:04.021Z,7.60
2023-01-08T23:46:30.514Z,7.68
2023-01-08T23:48:57.161Z,7.67
2023-01-08T23:51:24.327Z,7.52
2023-01-08T23:53:53.568Z,7.57
2023-01-08T23:56:21.103Z,7.62
2023-01-08T23:58:49.259Z,7.66
